sensor_id;sensor_type;location;lat;lon;timestamp;pressure;altitude;pressure_sealevel;temperature;humidity
19576;BME280;41589;51.196;7.074;2022-07-15T00:04:05;99502.38;;;18.00;49.32
19576;BME280;41589;51.196;7.074;2022-07-15T00:09:06;99499.16;;;17.87;49.75
19576;BME280;41589;51.196;7.074;2022-07-15T00:14:06;99507.69;;;17.81;50.03
19576;BME280;41589;51.196;7.074;2022-07-15T00:19:07;99494.16;;;17.76;50.25
19576;BME280;41589;51.196;7.074;2022-07-15T00:24:08;99501.56;;;17.68;50.66
19576;BME280;41589;51.196;7.074;2022-07-15T00:29:09;99501.31;;;17.66;50.82
19576;BME280;41589;51.196;7.074;2022-07-15T00:34:11;99495.00;;;17.56;51.01
19576;BME280;41589;51.196;7.074;2022-07-15T00:39:13;99495.91;;;17.48;51.35
19576;BME280;41589;51.196;7.074;2022-07-15T00:44:15;99490.69;;;17.41;51.58
19576;BME280;41589;51.196;7.074;2022-07-15T00:49:17;99498.44;;;17.40;51.99
19576;BME280;41589;51.196;7.074;2022-07-15T00:54:25;99492.75;;;17.40;51.93
19576;BME280;41589;51.196;7.074;2022-07-15T00:59:32;99492.69;;;17.35;52.18
19576;BME280;41589;51.196;7.074;2022-07-15T01:04:33;99492.63;;;17.29;52.29
19576;BME280;41589;51.196;7.074;2022-07-15T01:09:34;99492.81;;;17.25;52.44
19576;BME280;41589;51.196;7.074;2022-07-15T01:14:36;99488.56;;;17.15;52.86
19576;BME280;41589;51.196;7.074;2022-07-15T01:19:38;99503.44;;;17.04;53.19
19576;BME280;41589;51.196;7.074;2022-07-15T01:24:39;99493.59;;;17.00;53.27
19576;BME280;41589;51.196;7.074;2022-07-15T01:29:48;99507.44;;;16.92;53.23
19576;BME280;41589;51.196;7.074;2022-07-15T01:34:50;99497.75;;;16.84;53.59
19576;BME280;41589;51.196;7.074;2022-07-15T01:39:53;99502.34;;;16.76;53.88
19576;BME280;41589;51.196;7.074;2022-07-15T01:44:53;99510.53;;;16.74;53.78
19576;BME280;41589;51.196;7.074;2022-07-15T01:49:54;99513.69;;;16.76;54.08
19576;BME280;41589;51.196;7.074;2022-07-15T01:55:17;99510.28;;;16.72;53.87
19576;BME280;41589;51.196;7.074;2022-07-15T02:00:22;99509.31;;;16.60;53.84
19576;BME280;41589;51.196;7.074;2022-07-15T02:05:23;99519.41;;;16.61;53.98
19576;BME280;41589;51.196;7.074;2022-07-15T02:10:26;99516.84;;;16.63;54.08
19576;BME280;41589;51.196;7.074;2022-07-15T02:15:44;99514.63;;;16.67;53.83
19576;BME280;41589;51.196;7.074;2022-07-15T02:20:45;99510.28;;;16.72;53.95
19576;BME280;41589;51.196;7.074;2022-07-15T02:25:48;99517.31;;;16.77;53.91
19576;BME280;41589;51.196;7.074;2022-07-15T02:30:55;99515.03;;;16.81;53.65
19576;BME280;41589;51.196;7.074;2022-07-15T02:35:56;99517.88;;;16.81;53.60
19576;BME280;41589;51.196;7.074;2022-07-15T02:40:57;99511.19;;;16.84;53.61
19576;BME280;41589;51.196;7.074;2022-07-15T02:45:58;99508.06;;;16.82;53.70
19576;BME280;41589;51.196;7.074;2022-07-15T02:51:00;99517.25;;;16.91;53.53
19576;BME280;41589;51.196;7.074;2022-07-15T02:56:02;99523.16;;;16.88;53.49
19576;BME280;41589;51.196;7.074;2022-07-15T03:01:03;99522.16;;;16.91;53.37
19576;BME280;41589;51.196;7.074;2022-07-15T03:06:07;99522.00;;;16.80;53.59
19576;BME280;41589;51.196;7.074;2022-07-15T03:11:09;99533.09;;;16.78;53.51
19576;BME280;41589;51.196;7.074;2022-07-15T03:16:12;99535.16;;;16.62;53.86
19576;BME280;41589;51.196;7.074;2022-07-15T03:21:18;99534.66;;;16.64;54.24
19576;BME280;41589;51.196;7.074;2022-07-15T03:26:22;99546.16;;;16.69;54.02
19576;BME280;41589;51.196;7.074;2022-07-15T03:31:24;99553.50;;;16.61;54.33
19576;BME280;41589;51.196;7.074;2022-07-15T03:36:26;99555.97;;;16.54;54.54
19576;BME280;41589;51.196;7.074;2022-07-15T03:41:31;99556.97;;;16.51;54.72
19576;BME280;41589;51.196;7.074;2022-07-15T03:46:54;99560.50;;;16.45;54.94
19576;BME280;41589;51.196;7.074;2022-07-15T03:52:06;99570.09;;;16.48;55.05
19576;BME280;41589;51.196;7.074;2022-07-15T03:57:18;99567.47;;;16.44;55.10
19576;BME280;41589;51.196;7.074;2022-07-15T04:02:33;99576.50;;;16.63;54.90
19576;BME280;41589;51.196;7.074;2022-07-15T04:07:36;99581.25;;;16.52;55.12
19576;BME280;41589;51.196;7.074;2022-07-15T04:12:46;99593.59;;;16.49;55.36
19576;BME280;41589;51.196;7.074;2022-07-15T04:18:06;99599.06;;;16.52;55.64
19576;BME280;41589;51.196;7.074;2022-07-15T04:29:23;99603.06;;;16.75;55.11
19576;BME280;41589;51.196;7.074;2022-07-15T04:34:33;99612.34;;;16.90;55.00
19576;BME280;41589;51.196;7.074;2022-07-15T04:39:39;99598.00;;;16.99;54.66
19576;BME280;41589;51.196;7.074;2022-07-15T04:44:51;99607.09;;;17.03;54.53
19576;BME280;41589;51.196;7.074;2022-07-15T04:49:54;99613.94;;;17.12;54.56
19576;BME280;41589;51.196;7.074;2022-07-15T04:55:17;99615.66;;;17.24;54.31
19576;BME280;41589;51.196;7.074;2022-07-15T05:00:45;99614.75;;;17.32;54.02
19576;BME280;41589;51.196;7.074;2022-07-15T05:05:54;99614.44;;;17.51;54.13
19576;BME280;41589;51.196;7.074;2022-07-15T05:11:05;99611.31;;;17.69;53.41
19576;BME280;41589;51.196;7.074;2022-07-15T05:16:06;99614.66;;;17.68;53.11
19576;BME280;41589;51.196;7.074;2022-07-15T05:21:07;99622.91;;;17.86;53.04
19576;BME280;41589;51.196;7.074;2022-07-15T05:26:12;99624.50;;;18.18;52.83
19576;BME280;41589;51.196;7.074;2022-07-15T05:31:17;99623.50;;;18.22;51.82
19576;BME280;41589;51.196;7.074;2022-07-15T05:36:20;99622.19;;;18.43;51.64
19576;BME280;41589;51.196;7.074;2022-07-15T05:41:22;99621.69;;;18.82;51.06
19576;BME280;41589;51.196;7.074;2022-07-15T05:46:23;99636.44;;;18.74;50.63
19576;BME280;41589;51.196;7.074;2022-07-15T05:51:29;99632.50;;;18.72;49.45
19576;BME280;41589;51.196;7.074;2022-07-15T05:56:33;99629.31;;;18.33;49.93
19576;BME280;41589;51.196;7.074;2022-07-15T06:01:33;99639.47;;;18.39;50.21
19576;BME280;41589;51.196;7.074;2022-07-15T06:06:35;99635.41;;;18.20;49.94
19576;BME280;41589;51.196;7.074;2022-07-15T06:11:36;99641.50;;;18.07;49.56
19576;BME280;41589;51.196;7.074;2022-07-15T06:16:38;99628.94;;;17.94;49.67
19576;BME280;41589;51.196;7.074;2022-07-15T06:21:39;99633.63;;;17.97;50.04
19576;BME280;41589;51.196;7.074;2022-07-15T06:26:42;99635.50;;;18.31;50.03
19576;BME280;41589;51.196;7.074;2022-07-15T06:31:42;99637.03;;;18.84;48.96
19576;BME280;41589;51.196;7.074;2022-07-15T06:36:42;99632.56;;;19.20;47.81
19576;BME280;41589;51.196;7.074;2022-07-15T06:41:44;99638.44;;;19.48;47.53
19576;BME280;41589;51.196;7.074;2022-07-15T06:46:48;99638.81;;;19.78;46.37
19576;BME280;41589;51.196;7.074;2022-07-15T06:51:48;99632.31;;;19.78;45.83
19576;BME280;41589;51.196;7.074;2022-07-15T06:56:53;99633.38;;;19.86;45.05
19576;BME280;41589;51.196;7.074;2022-07-15T07:01:54;99633.66;;;19.94;45.36
19576;BME280;41589;51.196;7.074;2022-07-15T07:06:56;99625.06;;;19.82;44.25
19576;BME280;41589;51.196;7.074;2022-07-15T07:11:57;99634.56;;;19.51;44.22
19576;BME280;41589;51.196;7.074;2022-07-15T07:16:58;99651.75;;;19.63;43.92
19576;BME280;41589;51.196;7.074;2022-07-15T07:21:58;99637.97;;;19.67;44.07
19576;BME280;41589;51.196;7.074;2022-07-15T07:26:58;99641.16;;;19.80;43.49
19576;BME280;41589;51.196;7.074;2022-07-15T07:31:59;99632.66;;;20.08;42.03
19576;BME280;41589;51.196;7.074;2022-07-15T07:36:59;99647.78;;;20.25;41.38
19576;BME280;41589;51.196;7.074;2022-07-15T07:42:00;99651.94;;;20.24;40.38
19576;BME280;41589;51.196;7.074;2022-07-15T07:47:00;99649.03;;;20.07;40.72
19576;BME280;41589;51.196;7.074;2022-07-15T07:52:01;99652.34;;;19.95;40.66
19576;BME280;41589;51.196;7.074;2022-07-15T07:57:01;99644.81;;;19.97;40.08
19576;BME280;41589;51.196;7.074;2022-07-15T08:02:02;99647.03;;;20.30;39.78
19576;BME280;41589;51.196;7.074;2022-07-15T08:07:04;99642.34;;;20.50;38.68
19576;BME280;41589;51.196;7.074;2022-07-15T08:12:06;99654.84;;;20.63;38.34
19576;BME280;41589;51.196;7.074;2022-07-15T08:17:07;99655.34;;;20.90;38.60
19576;BME280;41589;51.196;7.074;2022-07-15T08:22:07;99656.63;;;20.33;36.66
19576;BME280;41589;51.196;7.074;2022-07-15T08:27:08;99651.91;;;20.13;37.33
19576;BME280;41589;51.196;7.074;2022-07-15T08:32:11;99660.69;;;20.04;37.93
19576;BME280;41589;51.196;7.074;2022-07-15T08:37:11;99656.78;;;19.96;38.44
19576;BME280;41589;51.196;7.074;2022-07-15T08:42:12;99656.88;;;20.24;38.31
19576;BME280;41589;51.196;7.074;2022-07-15T08:47:14;99661.03;;;20.34;37.78
19576;BME280;41589;51.196;7.074;2022-07-15T08:52:15;99658.19;;;20.34;37.79
19576;BME280;41589;51.196;7.074;2022-07-15T08:57:17;99666.75;;;20.39;39.24
19576;BME280;41589;51.196;7.074;2022-07-15T09:02:21;99666.50;;;20.32;39.84
19576;BME280;41589;51.196;7.074;2022-07-15T09:07:25;99667.56;;;20.51;40.13
19576;BME280;41589;51.196;7.074;2022-07-15T09:12:39;99670.66;;;20.59;39.76
19576;BME280;41589;51.196;7.074;2022-07-15T09:17:42;99671.16;;;20.40;40.41
19576;BME280;41589;51.196;7.074;2022-07-15T09:22:53;99670.66;;;20.25;40.72
19576;BME280;41589;51.196;7.074;2022-07-15T09:27:57;99664.63;;;20.06;40.75
19576;BME280;41589;51.196;7.074;2022-07-15T09:33:01;99666.47;;;20.15;41.19
19576;BME280;41589;51.196;7.074;2022-07-15T09:38:23;99664.91;;;20.14;40.79
19576;BME280;41589;51.196;7.074;2022-07-15T09:43:24;99663.38;;;20.35;41.47
19576;BME280;41589;51.196;7.074;2022-07-15T09:48:25;99667.28;;;20.38;40.30
19576;BME280;41589;51.196;7.074;2022-07-15T09:53:28;99666.78;;;20.90;39.14
19576;BME280;41589;51.196;7.074;2022-07-15T09:58:28;99672.31;;;21.74;37.83
19576;BME280;41589;51.196;7.074;2022-07-15T10:08:46;99658.38;;;22.47;35.92
19576;BME280;41589;51.196;7.074;2022-07-15T10:14:15;99654.06;;;22.29;35.55
19576;BME280;41589;51.196;7.074;2022-07-15T10:19:46;99645.00;;;22.55;35.47
19576;BME280;41589;51.196;7.074;2022-07-15T10:30:06;99655.81;;;22.73;34.02
19576;BME280;41589;51.196;7.074;2022-07-15T10:35:40;99652.84;;;22.85;34.27
19576;BME280;41589;51.196;7.074;2022-07-15T10:41:28;99634.66;;;23.31;34.00
19576;BME280;41589;51.196;7.074;2022-07-15T10:46:24;99633.13;;;23.00;33.49
19576;BME280;41589;51.196;7.074;2022-07-15T10:56:41;99629.25;;;22.67;34.03
19576;BME280;41589;51.196;7.074;2022-07-15T11:12:08;99637.69;;;21.72;34.42
19576;BME280;41589;51.196;7.074;2022-07-15T11:17:13;99634.09;;;21.54;34.72
19576;BME280;41589;51.196;7.074;2022-07-15T11:22:18;99626.59;;;21.46;35.49
19576;BME280;41589;51.196;7.074;2022-07-15T11:27:21;99618.84;;;21.93;36.33
19576;BME280;41589;51.196;7.074;2022-07-15T11:32:22;99613.13;;;22.29;35.28
19576;BME280;41589;51.196;7.074;2022-07-15T11:37:24;99590.75;;;22.57;34.45
19576;BME280;41589;51.196;7.074;2022-07-15T11:42:25;99594.88;;;22.92;34.58
19576;BME280;41589;51.196;7.074;2022-07-15T11:47:52;99600.34;;;22.65;34.13
19576;BME280;41589;51.196;7.074;2022-07-15T11:52:58;99586.84;;;22.85;34.79
19576;BME280;41589;51.196;7.074;2022-07-15T11:57:59;99587.16;;;23.30;34.74
19576;BME280;41589;51.196;7.074;2022-07-15T12:03:07;99584.53;;;23.51;33.40
19576;BME280;41589;51.196;7.074;2022-07-15T12:08:08;99580.78;;;23.37;33.49
19576;BME280;41589;51.196;7.074;2022-07-15T12:13:08;99587.22;;;23.24;33.33
19576;BME280;41589;51.196;7.074;2022-07-15T12:18:10;99589.28;;;23.05;33.31
19576;BME280;41589;51.196;7.074;2022-07-15T12:23:13;99590.06;;;22.75;33.43
19576;BME280;41589;51.196;7.074;2022-07-15T12:28:31;99589.59;;;22.71;33.76
19576;BME280;41589;51.196;7.074;2022-07-15T12:33:50;99584.09;;;22.43;33.36
19576;BME280;41589;51.196;7.074;2022-07-15T12:39:16;99584.84;;;22.50;34.07
19576;BME280;41589;51.196;7.074;2022-07-15T12:44:23;99586.56;;;22.58;34.55
19576;BME280;41589;51.196;7.074;2022-07-15T12:55:29;99599.59;;;22.59;34.13
19576;BME280;41589;51.196;7.074;2022-07-15T13:00:30;99603.63;;;22.45;34.29
19576;BME280;41589;51.196;7.074;2022-07-15T13:05:55;99594.78;;;22.43;34.56
19576;BME280;41589;51.196;7.074;2022-07-15T13:10:58;99594.50;;;22.11;34.05
19576;BME280;41589;51.196;7.074;2022-07-15T13:15:59;99585.19;;;21.99;33.76
19576;BME280;41589;51.196;7.074;2022-07-15T13:21:05;99583.97;;;21.89;33.90
19576;BME280;41589;51.196;7.074;2022-07-15T13:26:08;99575.22;;;22.11;34.35
19576;BME280;41589;51.196;7.074;2022-07-15T13:31:27;99584.63;;;22.42;34.27
19576;BME280;41589;51.196;7.074;2022-07-15T13:36:33;99576.81;;;22.42;33.43
19576;BME280;41589;51.196;7.074;2022-07-15T13:41:36;99574.47;;;22.41;32.94
19576;BME280;41589;51.196;7.074;2022-07-15T13:46:40;99568.72;;;22.71;33.47
19576;BME280;41589;51.196;7.074;2022-07-15T13:51:46;99567.22;;;22.89;33.01
19576;BME280;41589;51.196;7.074;2022-07-15T13:56:48;99573.22;;;22.91;32.48
19576;BME280;41589;51.196;7.074;2022-07-15T14:01:53;99574.69;;;23.03;32.32
19576;BME280;41589;51.196;7.074;2022-07-15T14:06:54;99575.16;;;23.07;32.25
19576;BME280;41589;51.196;7.074;2022-07-15T14:12:02;99569.00;;;23.41;32.48
19576;BME280;41589;51.196;7.074;2022-07-15T14:17:04;99566.53;;;23.69;31.46
19576;BME280;41589;51.196;7.074;2022-07-15T14:22:04;99575.06;;;23.56;30.80
19576;BME280;41589;51.196;7.074;2022-07-15T14:27:05;99564.56;;;23.40;31.26
19576;BME280;41589;51.196;7.074;2022-07-15T14:32:05;99559.63;;;23.59;30.70
19576;BME280;41589;51.196;7.074;2022-07-15T14:37:06;99557.66;;;23.48;31.27
19576;BME280;41589;51.196;7.074;2022-07-15T14:42:06;99556.63;;;23.70;31.35
19576;BME280;41589;51.196;7.074;2022-07-15T14:47:07;99554.09;;;23.99;31.16
19576;BME280;41589;51.196;7.074;2022-07-15T14:52:07;99549.97;;;24.13;30.36
19576;BME280;41589;51.196;7.074;2022-07-15T14:57:08;99554.72;;;23.92;30.41
19576;BME280;41589;51.196;7.074;2022-07-15T15:02:09;99552.63;;;23.92;30.72
19576;BME280;41589;51.196;7.074;2022-07-15T15:07:10;99553.03;;;23.64;30.99
19576;BME280;41589;51.196;7.074;2022-07-15T15:12:10;99553.13;;;23.15;30.33
19576;BME280;41589;51.196;7.074;2022-07-15T15:17:11;99565.91;;;22.90;31.25
19576;BME280;41589;51.196;7.074;2022-07-15T15:22:12;99555.19;;;22.90;31.44
19576;BME280;41589;51.196;7.074;2022-07-15T15:27:12;99555.59;;;23.06;31.25
19576;BME280;41589;51.196;7.074;2022-07-15T15:32:15;99556.50;;;23.38;31.44
19576;BME280;41589;51.196;7.074;2022-07-15T15:37:16;99554.88;;;23.24;31.25
19576;BME280;41589;51.196;7.074;2022-07-15T15:42:17;99546.06;;;22.92;31.38
19576;BME280;41589;51.196;7.074;2022-07-15T15:47:17;99540.50;;;22.99;31.33
19576;BME280;41589;51.196;7.074;2022-07-15T15:52:18;99545.31;;;22.91;31.15
19576;BME280;41589;51.196;7.074;2022-07-15T15:57:18;99535.69;;;23.13;31.49
19576;BME280;41589;51.196;7.074;2022-07-15T16:02:18;99532.19;;;23.20;31.17
19576;BME280;41589;51.196;7.074;2022-07-15T16:07:19;99527.66;;;23.06;30.91
19576;BME280;41589;51.196;7.074;2022-07-15T16:12:19;99518.44;;;22.89;31.39
19576;BME280;41589;51.196;7.074;2022-07-15T16:17:20;99524.81;;;23.00;31.71
19576;BME280;41589;51.196;7.074;2022-07-15T16:22:20;99516.28;;;22.95;31.56
19576;BME280;41589;51.196;7.074;2022-07-15T16:27:47;99513.97;;;22.93;31.44
19576;BME280;41589;51.196;7.074;2022-07-15T16:32:47;99493.75;;;22.80;31.73
19576;BME280;41589;51.196;7.074;2022-07-15T16:37:49;99498.78;;;22.74;31.88
19576;BME280;41589;51.196;7.074;2022-07-15T16:42:50;99497.63;;;22.34;32.02
19576;BME280;41589;51.196;7.074;2022-07-15T16:47:51;99495.97;;;22.44;32.58
19576;BME280;41589;51.196;7.074;2022-07-15T16:52:52;99490.13;;;22.55;32.22
19576;BME280;41589;51.196;7.074;2022-07-15T16:57:52;99494.25;;;22.60;32.45
19576;BME280;41589;51.196;7.074;2022-07-15T17:02:53;99491.63;;;22.62;32.14
19576;BME280;41589;51.196;7.074;2022-07-15T17:07:54;99485.03;;;22.67;32.41
19576;BME280;41589;51.196;7.074;2022-07-15T17:12:55;99489.53;;;22.62;32.82
19576;BME280;41589;51.196;7.074;2022-07-15T17:17:56;99478.53;;;22.66;32.30
19576;BME280;41589;51.196;7.074;2022-07-15T17:22:57;99474.66;;;22.64;32.33
19576;BME280;41589;51.196;7.074;2022-07-15T17:28:12;99486.44;;;22.60;32.59
19576;BME280;41589;51.196;7.074;2022-07-15T17:33:18;99478.88;;;22.57;32.96
19576;BME280;41589;51.196;7.074;2022-07-15T17:38:19;99481.09;;;22.45;32.86
19576;BME280;41589;51.196;7.074;2022-07-15T17:43:20;99475.16;;;22.38;32.35
19576;BME280;41589;51.196;7.074;2022-07-15T17:48:21;99490.00;;;22.42;32.40
19576;BME280;41589;51.196;7.074;2022-07-15T17:53:21;99482.16;;;22.42;32.47
19576;BME280;41589;51.196;7.074;2022-07-15T17:58:21;99480.44;;;22.34;32.56
19576;BME280;41589;51.196;7.074;2022-07-15T18:03:22;99479.00;;;22.46;32.83
19576;BME280;41589;51.196;7.074;2022-07-15T18:08:24;99476.63;;;22.50;32.92
19576;BME280;41589;51.196;7.074;2022-07-15T18:13:24;99480.19;;;22.56;33.44
19576;BME280;41589;51.196;7.074;2022-07-15T18:18:25;99481.03;;;22.51;33.09
19576;BME280;41589;51.196;7.074;2022-07-15T18:23:26;99480.56;;;22.47;32.77
19576;BME280;41589;51.196;7.074;2022-07-15T18:28:27;99478.09;;;22.32;32.91
19576;BME280;41589;51.196;7.074;2022-07-15T18:33:27;99475.47;;;22.34;33.11
19576;BME280;41589;51.196;7.074;2022-07-15T18:38:28;99476.00;;;22.33;33.06
19576;BME280;41589;51.196;7.074;2022-07-15T18:43:29;99473.69;;;22.26;33.62
19576;BME280;41589;51.196;7.074;2022-07-15T18:48:29;99471.66;;;22.21;33.97
19576;BME280;41589;51.196;7.074;2022-07-15T18:53:30;99470.91;;;22.20;33.67
19576;BME280;41589;51.196;7.074;2022-07-15T18:58:31;99469.63;;;22.15;33.97
19576;BME280;41589;51.196;7.074;2022-07-15T19:03:33;99462.69;;;22.05;33.94
19576;BME280;41589;51.196;7.074;2022-07-15T19:08:33;99466.94;;;21.93;34.43
19576;BME280;41589;51.196;7.074;2022-07-15T19:13:35;99470.94;;;21.84;34.70
19576;BME280;41589;51.196;7.074;2022-07-15T19:18:36;99467.09;;;21.76;34.98
19576;BME280;41589;51.196;7.074;2022-07-15T19:23:37;99476.03;;;21.67;34.99
19576;BME280;41589;51.196;7.074;2022-07-15T19:28:38;99477.88;;;21.53;35.33
19576;BME280;41589;51.196;7.074;2022-07-15T19:33:38;99478.50;;;21.41;35.44
19576;BME280;41589;51.196;7.074;2022-07-15T19:38:40;99483.81;;;21.25;35.74
19576;BME280;41589;51.196;7.074;2022-07-15T19:43:41;99491.66;;;21.14;35.61
19576;BME280;41589;51.196;7.074;2022-07-15T19:48:42;99489.59;;;21.03;35.91
19576;BME280;41589;51.196;7.074;2022-07-15T19:53:43;99496.97;;;20.93;36.38
19576;BME280;41589;51.196;7.074;2022-07-15T19:58:44;99499.59;;;20.85;36.57
19576;BME280;41589;51.196;7.074;2022-07-15T20:03:45;99493.09;;;20.73;36.38
19576;BME280;41589;51.196;7.074;2022-07-15T20:08:45;99509.75;;;20.64;36.81
19576;BME280;41589;51.196;7.074;2022-07-15T20:13:46;99512.38;;;20.56;36.75
19576;BME280;41589;51.196;7.074;2022-07-15T20:18:47;99506.38;;;20.48;37.19
19576;BME280;41589;51.196;7.074;2022-07-15T20:23:48;99504.88;;;20.42;37.53
19576;BME280;41589;51.196;7.074;2022-07-15T20:28:49;99508.25;;;20.35;37.58
19576;BME280;41589;51.196;7.074;2022-07-15T20:33:50;99503.03;;;20.28;37.51
19576;BME280;41589;51.196;7.074;2022-07-15T20:38:51;99506.16;;;20.18;38.20
19576;BME280;41589;51.196;7.074;2022-07-15T20:43:52;99506.19;;;20.13;38.27
19576;BME280;41589;51.196;7.074;2022-07-15T20:48:52;99495.22;;;20.06;38.41
19576;BME280;41589;51.196;7.074;2022-07-15T20:53:53;99499.41;;;19.99;38.64
19576;BME280;41589;51.196;7.074;2022-07-15T20:58:54;99498.09;;;19.95;38.70
19576;BME280;41589;51.196;7.074;2022-07-15T21:03:55;99487.69;;;19.86;38.92
19576;BME280;41589;51.196;7.074;2022-07-15T21:08:56;99491.31;;;19.75;39.54
19576;BME280;41589;51.196;7.074;2022-07-15T21:13:56;99489.78;;;19.74;39.39
19576;BME280;41589;51.196;7.074;2022-07-15T21:18:57;99496.25;;;19.75;39.56
19576;BME280;41589;51.196;7.074;2022-07-15T21:23:57;99491.34;;;19.70;39.61
19576;BME280;41589;51.196;7.074;2022-07-15T21:28:58;99496.25;;;19.64;39.84
19576;BME280;41589;51.196;7.074;2022-07-15T21:33:58;99502.22;;;19.66;39.66
19576;BME280;41589;51.196;7.074;2022-07-15T21:38:59;99486.66;;;19.61;39.84
19576;BME280;41589;51.196;7.074;2022-07-15T21:44:00;99497.53;;;19.51;40.23
19576;BME280;41589;51.196;7.074;2022-07-15T21:49:00;99491.78;;;19.40;40.48
19576;BME280;41589;51.196;7.074;2022-07-15T21:54:01;99497.78;;;19.37;40.56
19576;BME280;41589;51.196;7.074;2022-07-15T21:59:02;99492.81;;;19.31;40.52
19576;BME280;41589;51.196;7.074;2022-07-15T22:04:07;99493.59;;;19.26;40.82
19576;BME280;41589;51.196;7.074;2022-07-15T22:09:13;99494.03;;;19.25;40.66
19576;BME280;41589;51.196;7.074;2022-07-15T22:14:17;99502.34;;;19.23;40.83
19576;BME280;41589;51.196;7.074;2022-07-15T22:19:27;99503.34;;;19.14;41.16
19576;BME280;41589;51.196;7.074;2022-07-15T22:24:32;99500.22;;;19.12;41.18
19576;BME280;41589;51.196;7.074;2022-07-15T22:29:38;99500.50;;;19.09;41.35
19576;BME280;41589;51.196;7.074;2022-07-15T22:34:43;99496.31;;;19.04;41.41
19576;BME280;41589;51.196;7.074;2022-07-15T22:39:45;99498.63;;;19.00;41.84
19576;BME280;41589;51.196;7.074;2022-07-15T22:44:48;99495.25;;;18.96;42.03
19576;BME280;41589;51.196;7.074;2022-07-15T22:49:52;99493.16;;;18.91;42.29
19576;BME280;41589;51.196;7.074;2022-07-15T22:55:01;99486.38;;;18.83;42.53
19576;BME280;41589;51.196;7.074;2022-07-15T23:00:07;99490.75;;;18.78;42.94
19576;BME280;41589;51.196;7.074;2022-07-15T23:05:08;99494.91;;;18.77;42.94
19576;BME280;41589;51.196;7.074;2022-07-15T23:10:10;99494.13;;;18.77;43.07
19576;BME280;41589;51.196;7.074;2022-07-15T23:15:24;99493.09;;;18.80;43.43
19576;BME280;41589;51.196;7.074;2022-07-15T23:20:31;99485.59;;;18.82;43.29
19576;BME280;41589;51.196;7.074;2022-07-15T23:25:39;99477.28;;;18.79;43.20
19576;BME280;41589;51.196;7.074;2022-07-15T23:30:41;99477.28;;;18.79;43.62
19576;BME280;41589;51.196;7.074;2022-07-15T23:35:43;99484.00;;;18.75;43.58
19576;BME280;41589;51.196;7.074;2022-07-15T23:40:48;99482.16;;;18.72;43.77
19576;BME280;41589;51.196;7.074;2022-07-15T23:45:53;99481.13;;;18.70;43.89
19576;BME280;41589;51.196;7.074;2022-07-15T23:50:58;99474.91;;;18.66;43.98
19576;BME280;41589;51.196;7.074;2022-07-15T23:56:00;99485.75;;;18.62;44.20
